Time;durP1;ratioP1;P1;durP2;ratioP2;P2;SDS_P1;SDS_P2;PMS_P1;PMS_P2;Temp;Humidity;BMP_temperature;BMP_pressure;BME280_temperature;BME280_humidity;BME280_pressure;Samples;Min_cycle;Max_cycle;Signal;HPM_P1;HPM_P2
2022/03/31 00:00:42;;;;;;;16.60;8.43;;;;;;;14.87;56.81;99725.06;5069867;28;20131;-74
2022/03/31 00:03:13;;;;;;;18.23;8.37;;;;;;;14.98;56.86;99743.31;5068402;28;20105;-74
2022/03/31 00:05:41;;;;;;;20.07;8.10;;;;;;;14.98;56.96;99750.91;5069940;28;20052;-75
2022/03/31 00:08:10;;;;;;;13.87;7.13;;;;;;;15.00;56.97;99745.78;5072416;28;20044;-76
2022/03/31 00:10:58;;;;;;;12.63;7.47;;;;;;;14.93;56.86;99733.03;5066411;28;20048;-73
2022/03/31 00:13:27;;;;;;;16.03;7.70;;;;;;;14.97;56.74;99743.63;5063422;28;20048;-75
2022/03/31 00:15:56;;;;;;;;;;;;;;;14.87;56.57;99744.75;5067135;28;20109;-74
2022/03/31 00:18:25;;;;;;;19.73;9.53;;;;;;;14.89;56.66;99743.28;5066320;28;19924;-74
2022/03/31 00:24:15;;;;;;;15.23;7.23;;;;;;;14.62;56.97;99726.72;5067971;28;20078;-76
2022/03/31 00:26:43;;;;;;;15.33;7.73;;;;;;;14.78;57.19;99753.19;5067570;28;20123;-75
2022/03/31 00:29:10;;;;;;;21.37;8.97;;;;;;;14.71;57.15;99733.19;5070590;28;20049;-75
2022/03/31 00:31:38;;;;;;;18.97;9.00;;;;;;;14.53;57.12;99704.22;5061883;28;20049;-75
2022/03/31 00:34:05;;;;;;;17.20;8.07;;;;;;;14.77;57.17;99740.31;5067737;28;20079;-75
2022/03/31 00:36:32;;;;;;;18.73;8.10;;;;;;;14.71;57.39;99741.63;5067511;28;20127;-75
2022/03/31 00:41:45;;;;;;;24.77;9.00;;;;;;;14.70;57.33;99737.16;5063985;28;20080;-74
2022/03/31 00:44:12;;;;;;;23.87;9.27;;;;;;;14.65;57.25;99742.91;5068242;28;20131;-74
2022/03/31 00:46:47;;;;;;;20.43;9.73;;;;;;;14.66;57.34;99748.19;5064877;28;20128;-75
2022/03/31 00:49:14;;;;;;;21.60;8.50;;;;;;;14.57;57.46;99738.94;5068330;28;20072;-75
2022/03/31 00:51:42;;;;;;;24.90;8.77;;;;;;;14.73;57.56;99770.19;5059320;28;20155;-74
2022/03/31 00:54:09;;;;;;;19.63;9.17;;;;;;;14.59;57.68;99738.59;5070653;28;20052;-74
2022/03/31 00:56:37;;;;;;;17.77;9.00;;;;;;;14.45;57.97;99728.28;5069593;28;20768;-75
2022/03/31 00:59:08;;;;;;;17.87;9.10;;;;;;;14.71;57.84;99752.84;5064455;28;20045;-75
2022/03/31 01:01:38;;;;;;;15.33;9.73;;;;;;;14.67;57.98;99747.06;5061997;28;20148;-74
2022/03/31 01:04:06;;;;;;;19.10;8.33;;;;;;;14.61;57.67;99727.88;5067109;28;20114;-75
2022/03/31 01:06:34;;;;;;;25.97;9.20;;;;;;;14.56;57.89;99716.78;5065251;28;20045;-76
2022/03/31 01:09:03;;;;;;;18.90;9.63;;;;;;;14.71;57.97;99724.75;5069184;28;20140;-76
2022/03/31 01:11:31;;;;;;;18.00;9.33;;;;;;;14.64;57.91;99707.56;5069353;28;20072;-74
2022/03/31 01:13:58;;;;;;;20.40;9.33;;;;;;;14.77;57.91;99726.25;5067124;28;20183;-73
2022/03/31 01:16:25;;;;;;;23.23;9.83;;;;;;;14.90;58.13;99749.72;5064871;28;20458;-74
2022/03/31 01:18:53;;;;;;;23.77;9.33;;;;;;;14.93;58.31;99744.28;5066254;28;20118;-74
2022/03/31 01:21:20;;;;;;;29.20;10.30;;;;;;;14.48;57.93;99681.03;5073491;28;20083;-75
2022/03/31 01:23:47;;;;;;;19.63;9.93;;;;;;;14.92;58.03;99731.38;5074157;28;20067;-74
2022/03/31 01:26:20;;;;;;;19.37;9.77;;;;;;;15.08;58.21;99750.59;5074392;28;20049;-73
2022/03/31 01:28:47;;;;;;;22.30;9.97;;;;;;;15.15;58.30;99753.72;5066837;28;20537;-74
2022/03/31 01:31:14;;;;;;;19.73;9.90;;;;;;;14.98;58.39;99718.00;5067493;28;20103;-75
2022/03/31 01:33:42;;;;;;;21.33;10.17;;;;;;;14.99;58.55;99735.69;5068882;28;20044;-75
2022/03/31 01:36:08;;;;;;;24.57;9.87;;;;;;;15.09;58.60;99747.44;5073669;28;20056;-74
2022/03/31 01:38:35;;;;;;;22.10;10.53;;;;;;;15.18;58.54;99761.50;5065330;28;20068;-74
2022/03/31 01:41:04;;;;;;;30.07;10.00;;;;;;;15.23;58.37;99761.31;5070222;28;20135;-75
2022/03/31 01:43:31;;;;;;;19.97;9.50;;;;;;;15.23;58.28;99763.31;5065661;28;20095;-75
2022/03/31 01:45:58;;;;;;;21.47;9.80;;;;;;;15.08;58.31;99728.91;5068149;28;20121;-75
2022/03/31 01:48:25;;;;;;;26.23;9.23;;;;;;;15.27;58.32;99750.25;5073138;28;20468;-75
2022/03/31 01:50:52;;;;;;;21.03;8.50;;;;;;;15.31;58.21;99749.22;5089504;28;20456;-74
2022/03/31 01:53:20;;;;;;;24.67;9.53;;;;;;;15.33;58.21;99755.38;5067335;28;20098;-75
2022/03/31 01:55:48;;;;;;;22.07;9.37;;;;;;;15.24;58.18;99748.09;5065736;28;20048;-74
2022/03/31 01:58:15;;;;;;;20.40;9.77;;;;;;;15.27;58.14;99742.63;5069962;28;20076;-75
2022/03/31 02:00:42;;;;;;;21.47;10.97;;;;;;;15.11;58.10;99718.97;5065977;28;20083;-75
2022/03/31 02:03:09;;;;;;;21.40;10.03;;;;;;;15.25;57.75;99741.31;5058248;28;20056;-75
2022/03/31 02:05:36;;;;;;;22.07;8.93;;;;;;;15.32;58.05;99741.66;5071284;28;20044;-75
2022/03/31 02:08:04;;;;;;;23.87;9.67;;;;;;;15.24;58.28;99723.59;5068764;28;20101;-75
2022/03/31 02:10:32;;;;;;;27.93;11.50;;;;;;;15.27;57.87;99714.50;5068675;28;20497;-74
2022/03/31 02:13:01;;;;;;;22.83;9.87;;;;;;;15.23;57.78;99684.56;5068865;28;20131;-73
2022/03/31 02:15:32;;;;;;;19.42;8.82;;;;;;;15.37;57.71;99700.09;5071611;28;20090;-75
2022/03/31 02:18:01;;;;;;;16.97;9.40;;;;;;;15.40;57.54;99707.84;5067590;28;20123;-75
2022/03/31 02:20:30;;;;;;;22.20;9.97;;;;;;;15.43;57.50;99711.19;5074312;28;20123;-75
2022/03/31 02:23:00;;;;;;;28.63;9.88;;;;;;;15.21;57.84;99675.63;5074088;28;20091;-75
2022/03/31 02:25:28;;;;;;;23.85;10.18;;;;;;;15.15;57.51;99660.94;5072169;28;20135;-75
2022/03/31 02:27:55;;;;;;;18.13;9.80;;;;;;;15.37;57.51;99697.28;5068234;28;20465;-75
2022/03/31 02:30:23;;;;;;;18.10;8.80;;;;;;;15.31;57.39;99689.34;5070299;28;20112;-75
2022/03/31 02:32:50;;;;;;;24.77;10.73;;;;;;;15.18;57.40;99677.13;5068744;28;20523;-75
2022/03/31 02:35:17;;;;;;;23.60;9.90;;;;;;;15.18;57.38;99674.31;5082528;28;20101;-75
2022/03/31 02:37:44;;;;;;;21.83;9.87;;;;;;;15.19;57.37;99692.84;5066608;28;20084;-75
2022/03/31 02:40:11;;;;;;;24.97;9.93;;;;;;;15.03;57.48;99680.44;5087174;28;20079;-74
2022/03/31 02:42:38;;;;;;;19.67;8.83;;;;;;;14.94;57.46;99672.03;5072325;28;20128;-74
2022/03/31 02:45:06;;;;;;;26.20;11.30;;;;;;;14.99;57.61;99696.31;5066119;28;20481;-74
2022/03/31 02:47:34;;;;;;;19.97;11.80;;;;;;;14.96;57.43;99702.59;5056574;28;20076;-74
2022/03/31 02:50:03;;;;;;;22.57;11.50;;;;;;;14.86;57.82;99689.69;5068486;28;20483;-74
2022/03/31 02:55:24;;;;;;;20.77;11.13;;;;;;;14.87;57.76;99695.00;5071855;28;20140;-75
2022/03/31 02:55:27;;;;;;;27.97;10.63;;;;;;;14.80;58.18;99694.69;5071966;28;20088;-75
2022/03/31 02:58:02;;;;;;;16.37;10.17;;;;;;;14.78;58.28;99701.78;5067984;28;20451;-75
2022/03/31 03:00:32;;;;;;;15.73;9.67;;;;;;;14.88;58.37;99721.13;5067629;28;20417;-74
2022/03/31 03:03:02;;;;;;;17.57;10.90;;;;;;;14.85;58.71;99711.38;5058112;28;20106;-74
2022/03/31 03:05:31;;;;;;;17.95;10.55;;;;;;;14.86;58.34;99703.75;5072013;28;20052;-75
2022/03/31 03:07:58;;;;;;;17.87;10.10;;;;;;;14.33;58.32;99640.22;5072353;28;20075;-74
2022/03/31 03:10:25;;;;;;;17.07;8.97;;;;;;;14.74;58.29;99664.25;5059538;28;20124;-74
2022/03/31 03:12:51;;;;;;;24.80;10.07;;;;;;;14.85;58.61;99676.81;5069790;28;20072;-74
2022/03/31 03:15:18;;;;;;;17.90;9.83;;;;;;;14.64;58.29;99631.69;5066243;28;20171;-74
2022/03/31 03:17:47;;;;;;;21.43;11.03;;;;;;;14.88;58.46;99650.84;5072551;28;20070;-74
2022/03/31 03:20:16;;;;;;;20.07;12.03;;;;;;;15.06;58.17;99682.59;5065147;28;20516;-74
2022/03/31 03:22:47;;;;;;;22.83;11.47;;;;;;;15.01;57.85;99672.34;5072370;28;20076;-74
2022/03/31 03:25:17;;;;;;;25.93;11.47;;;;;;;14.99;58.34;99659.78;5069615;28;20080;-74
2022/03/31 03:27:46;;;;;;;18.80;10.80;;;;;;;14.98;58.23;99660.94;5070588;28;20527;-74
2022/03/31 03:30:14;;;;;;;15.00;9.97;;;;;;;15.07;57.95;99675.81;5072517;28;20171;-74
2022/03/31 03:32:41;;;;;;;17.73;10.17;;;;;;;14.98;57.92;99656.16;5068624;28;20132;-73
2022/03/31 03:35:10;;;;;;;18.20;9.90;;;;;;;14.93;57.75;99643.06;5067447;28;20600;-73
2022/03/31 03:37:38;;;;;;;23.70;9.75;;;;;;;15.10;58.07;99670.34;5067551;28;20056;-74
2022/03/31 03:40:07;;;;;;;19.53;11.00;;;;;;;15.03;58.09;99646.69;5066923;28;20072;-74
2022/03/31 03:42:35;;;;;;;16.93;11.27;;;;;;;15.02;57.94;99642.25;5070591;28;20048;-74
2022/03/31 03:45:02;;;;;;;27.33;11.93;;;;;;;15.13;57.92;99661.25;5067096;28;20455;-75
2022/03/31 03:47:30;;;;;;;23.27;11.53;;;;;;;14.92;57.84;99630.16;5071683;28;20052;-73
2022/03/31 03:49:57;;;;;;;17.67;9.13;;;;;;;14.97;57.89;99642.41;5061696;28;20075;-74
2022/03/31 03:52:24;;;;;;;16.73;9.87;;;;;;;14.89;57.82;99638.44;5083763;28;20128;-74
2022/03/31 03:54:51;;;;;;;19.00;9.53;;;;;;;14.83;57.74;99632.16;5068084;28;20415;-74
2022/03/31 03:57:19;;;;;;;21.37;10.17;;;;;;;14.76;57.78;99625.38;5067647;28;20128;-75
2022/03/31 03:59:45;;;;;;;16.00;9.53;;;;;;;14.89;57.67;99656.13;5071311;28;20135;-74
2022/03/31 04:02:12;;;;;;;17.73;11.07;;;;;;;14.83;57.80;99651.84;5057977;28;20145;-74
2022/03/31 04:04:42;;;;;;;16.17;10.00;;;;;;;14.49;57.89;99606.84;5065714;28;20052;-75
2022/03/31 04:07:09;;;;;;;14.40;9.10;;;;;;;14.79;57.67;99653.66;5059740;28;20099;-74
2022/03/31 04:09:36;;;;;;;19.20;10.00;;;;;;;14.73;57.67;99660.59;5063652;28;20131;-74
2022/03/31 04:12:03;;;;;;;24.67;9.57;;;;;;;14.65;57.29;99636.97;5050682;28;20124;-74
2022/03/31 04:14:30;;;;;;;14.73;7.90;;;;;;;14.64;57.69;99638.13;5066607;28;20072;-74
2022/03/31 04:16:57;;;;;;;19.53;8.47;;;;;;;14.56;57.58;99636.13;5066153;28;20095;-74
2022/03/31 04:19:23;;;;;;;16.50;7.97;;;;;;;14.58;57.66;99644.22;5054230;28;20563;-74
2022/03/31 04:21:50;;;;;;;19.50;8.93;;;;;;;14.56;57.84;99638.09;5068686;28;20044;-74
2022/03/31 04:24:17;;;;;;;21.47;8.37;;;;;;;14.56;57.96;99643.72;5059479;28;20080;-74
2022/03/31 04:26:44;;;;;;;13.70;7.50;;;;;;;14.62;58.03;99645.22;5067353;28;20067;-74
2022/03/31 04:29:11;;;;;;;17.67;8.23;;;;;;;14.58;58.31;99641.44;5067930;28;20080;-74
2022/03/31 04:31:43;;;;;;;15.53;8.07;;;;;;;14.66;58.28;99654.63;5064066;28;20136;-73
2022/03/31 04:34:13;;;;;;;19.73;7.63;;;;;;;14.65;58.34;99653.00;5064499;28;20045;-74
2022/03/31 04:36:41;;;;;;;20.02;7.10;;;;;;;14.57;58.30;99636.97;5067940;28;20086;-75
2022/03/31 04:39:14;;;;;;;23.20;7.87;;;;;;;14.57;58.30;99626.56;5061182;28;20544;-75
2022/03/31 04:41:44;;;;;;;16.87;7.17;;;;;;;14.72;58.26;99656.13;5065315;28;20779;-75
2022/03/31 04:44:11;;;;;;;17.55;8.63;;;;;;;14.57;58.03;99623.75;5069550;28;20083;-75
2022/03/31 04:46:38;;;;;;;14.87;6.87;;;;;;;14.71;58.23;99650.88;5065300;28;20500;-75
2022/03/31 04:49:07;;;;;;;19.83;7.27;;;;;;;14.68;58.43;99635.47;5062462;28;20052;-74
2022/03/31 04:51:34;;;;;;;12.57;6.73;;;;;;;14.52;58.36;99614.66;5069407;28;20076;-74
2022/03/31 04:54:01;;;;;;;12.17;6.13;;;;;;;14.63;58.54;99633.66;5063009;28;20080;-74
2022/03/31 04:56:28;;;;;;;16.97;6.93;;;;;;;14.52;58.41;99618.28;5069174;28;20079;-74
2022/03/31 04:58:55;;;;;;;15.53;6.83;;;;;;;14.52;58.56;99615.47;5063051;28;20140;-74
2022/03/31 05:01:23;;;;;;;20.20;7.73;;;;;;;14.70;58.60;99641.59;5069032;28;20144;-74
2022/03/31 05:03:51;;;;;;;17.70;7.77;;;;;;;14.74;58.78;99638.97;5067460;28;20084;-75
2022/03/31 05:06:20;;;;;;;;;;;;;;;14.63;58.54;99644.06;5068631;28;20056;-74
2022/03/31 05:08:47;;;;;;;13.90;6.87;;;;;;;14.59;58.51;99603.72;5067380;28;20292;-74
2022/03/31 05:11:14;;;;;;;14.63;6.23;;;;;;;14.55;58.63;99602.75;5063461;28;20053;-74
2022/03/31 05:13:40;;;;;;;13.37;6.57;;;;;;;14.73;58.93;99632.50;5068952;28;20074;-75
2022/03/31 05:16:07;;;;;;;12.87;6.87;;;;;;;14.73;58.94;99614.81;5068542;28;20066;-74
2022/03/31 05:18:34;;;;;;;16.80;8.93;;;;;;;14.64;58.89;99597.97;5071603;28;20083;-74
2022/03/31 05:21:01;;;;;;;18.03;6.70;;;;;;;14.79;58.61;99613.47;5064789;28;20106;-74
2022/03/31 05:23:28;;;;;;;16.47;6.60;;;;;;;14.63;58.69;99588.72;5061187;28;20418;-74
2022/03/31 05:25:55;;;;;;;19.80;8.07;;;;;;;14.82;58.67;99624.88;5069245;28;20076;-74
2022/03/31 05:28:22;;;;;;;11.23;7.57;;;;;;;14.80;58.50;99632.00;5071617;28;20073;-73
2022/03/31 05:30:49;;;;;;;17.17;6.40;;;;;;;14.68;58.90;99635.47;5066330;28;20040;-73
2022/03/31 05:33:17;;;;;;;16.07;6.73;;;;;;;14.67;59.22;99645.06;5063554;28;20072;-75
2022/03/31 05:35:44;;;;;;;16.53;5.57;;;;;;;14.46;59.45;99626.03;5066592;28;20080;-74
2022/03/31 05:38:11;;;;;;;17.30;8.50;;;;;;;14.39;59.77;99617.25;5064339;28;20055;-74
2022/03/31 05:40:38;;;;;;;28.00;12.17;;;;;;;14.58;60.45;99647.03;5068243;28;20109;-75
2022/03/31 05:43:05;;;;;;;16.70;6.63;;;;;;;14.35;60.53;99621.03;5062996;28;20536;-73
2022/03/31 05:45:32;;;;;;;21.70;7.80;;;;;;;14.44;61.13;99652.78;5064825;28;20164;-74
2022/03/31 05:47:59;;;;;;;17.07;6.37;;;;;;;14.31;60.94;99637.72;5063662;28;20060;-75
2022/03/31 05:50:27;;;;;;;13.37;6.37;;;;;;;14.37;61.19;99636.41;5062637;28;20091;-74
2022/03/31 05:52:54;;;;;;;14.87;6.33;;;;;;;14.28;61.44;99623.50;5065383;28;20143;-75
2022/03/31 05:55:21;;;;;;;12.97;6.37;;;;;;;14.49;61.55;99648.97;5062519;28;20129;-76
2022/03/31 05:57:49;;;;;;;23.43;6.90;;;;;;;14.48;61.81;99638.91;5066466;28;20044;-77
2022/03/31 06:00:19;;;;;;;13.57;5.47;;;;;;;14.48;61.54;99620.06;5068095;28;20045;-75
2022/03/31 06:02:46;;;;;;;11.77;3.80;;;;;;;14.66;61.38;99635.78;5066150;28;20127;-76
2022/03/31 06:05:18;;;;;;;9.23;4.30;;;;;;;14.44;62.09;99625.50;5065240;28;20124;-79
2022/03/31 06:07:45;;;;;;;10.67;3.03;;;;;;;14.25;62.89;99627.78;5073513;28;20075;-83
2022/03/31 06:10:13;;;;;;;7.67;2.60;;;;;;;14.18;63.74;99642.31;5089030;28;20115;-82
2022/03/31 06:12:41;;;;;;;6.27;2.13;;;;;;;14.13;63.99;99633.25;5071857;28;20131;-85
2022/03/31 06:15:08;;;;;;;7.30;2.10;;;;;;;13.88;64.05;99610.38;5063344;28;20048;-74
2022/03/31 06:17:39;;;;;;;8.20;2.03;;;;;;;14.10;64.12;99637.53;5069041;28;20067;-74
2022/03/31 06:20:07;;;;;;;6.27;1.97;;;;;;;13.95;64.66;99644.41;5072896;28;20079;-73
2022/03/31 06:22:34;;;;;;;9.90;2.20;;;;;;;13.74;65.34;99630.16;5070580;28;20362;-74
2022/03/31 06:25:01;;;;;;;5.07;1.80;;;;;;;13.84;65.13;99637.44;5071534;28;20604;-75
2022/03/31 06:27:28;;;;;;;9.03;1.70;;;;;;;13.81;65.36;99635.28;5070371;28;20576;-74
2022/03/31 06:29:55;;;;;;;11.57;1.50;;;;;;;13.67;65.29;99620.53;5068779;28;20135;-72
2022/03/31 06:32:22;;;;;;;4.87;1.57;;;;;;;13.49;65.83;99600.81;5070138;28;20079;-74
2022/03/31 06:34:49;;;;;;;2.50;1.23;;;;;;;13.78;66.05;99647.16;5067140;28;20420;-73
2022/03/31 06:37:16;;;;;;;2.27;0.90;;;;;;;13.72;66.29;99654.88;5064511;28;20454;-72
2022/03/31 06:39:43;;;;;;;6.03;1.13;;;;;;;13.48;66.69;99618.81;5071093;28;20127;-73
2022/03/31 06:42:10;;;;;;;4.20;1.27;;;;;;;13.42;66.94;99610.84;5071039;28;20087;-72
2022/03/31 06:44:37;;;;;;;3.47;1.03;;;;;;;13.44;66.62;99609.41;5088920;28;20053;-72
2022/03/31 06:47:05;;;;;;;2.23;1.20;;;;;;;13.72;66.93;99654.06;5066227;28;20095;-73
2022/03/31 06:49:34;;;;;;;3.40;1.10;;;;;;;13.81;67.28;99674.59;5060716;28;20102;-73
2022/03/31 06:52:01;;;;;;;6.10;1.33;;;;;;;13.74;67.33;99674.19;5064470;28;20056;-75
2022/03/31 06:54:28;;;;;;;5.17;0.80;;;;;;;13.66;67.70;99660.97;5065036;28;20049;-76
2022/03/31 06:56:55;;;;;;;9.33;1.80;;;;;;;13.82;67.55;99673.44;5063132;28;20041;-75
2022/03/31 06:59:22;;;;;;;3.07;0.90;;;;;;;13.70;67.58;99656.34;5072565;28;20048;-76
2022/03/31 07:01:49;;;;;;;3.87;1.33;;;;;;;13.78;67.67;99668.75;5070744;28;20135;-75
2022/03/31 07:04:17;;;;;;;2.90;1.33;;;;;;;13.75;67.97;99667.47;5064634;28;20060;-76
2022/03/31 07:06:43;;;;;;;6.63;1.90;;;;;;;13.96;67.86;99693.78;5089186;28;20052;-76
2022/03/31 07:09:10;;;;;;;5.73;1.97;;;;;;;14.03;67.72;99695.31;5072406;28;20079;-76
2022/03/31 07:11:38;;;;;;;5.10;1.20;;;;;;;14.19;67.75;99699.31;5073655;28;20127;-75
2022/03/31 07:14:06;;;;;;;6.50;1.13;;;;;;;14.12;67.54;99694.19;5071394;28;20044;-76
2022/03/31 07:16:33;;;;;;;3.67;1.50;;;;;;;14.07;67.80;99682.25;5067004;28;20516;-76
2022/03/31 07:19:01;;;;;;;7.60;1.60;;;;;;;14.27;67.82;99698.50;5073468;28;20102;-75
2022/03/31 07:21:32;;;;;;;8.00;2.43;;;;;;;14.21;68.06;99694.19;5072550;28;20041;-76
2022/03/31 07:24:00;;;;;;;9.03;1.93;;;;;;;14.23;68.04;99687.09;5067609;28;20048;-76
2022/03/31 07:26:28;;;;;;;4.90;2.10;;;;;;;14.39;67.93;99695.91;5065218;28;20060;-72
2022/03/31 07:28:55;;;;;;;7.83;1.97;;;;;;;14.37;67.93;99695.41;5069738;28;20067;-71
2022/03/31 07:31:26;;;;;;;4.67;1.60;;;;;;;14.37;68.31;99670.13;5063452;28;20049;-71
2022/03/31 07:33:54;;;;;;;4.53;1.10;;;;;;;14.78;68.21;99682.94;5066659;28;20048;-72
2022/03/31 07:36:22;;;;;;;4.87;1.20;;;;;;;15.23;67.70;99701.44;5071453;28;20051;-72
2022/03/31 07:38:49;;;;;;;2.63;1.27;;;;;;;15.57;67.19;99697.75;5071105;28;20056;-75
2022/03/31 07:41:16;;;;;;;4.67;1.57;;;;;;;15.89;66.98;99696.34;5063509;28;20409;-72
2022/03/31 07:43:44;;;;;;;1.73;1.17;;;;;;;15.91;66.77;99696.00;5068727;28;20163;-71
2022/03/31 07:46:11;;;;;;;4.00;1.50;;;;;;;15.95;66.44;99694.16;5066206;28;20056;-71
2022/03/31 07:48:38;;;;;;;8.43;1.70;;;;;;;15.81;66.60;99683.94;5068320;28;20063;-72
2022/03/31 07:51:05;;;;;;;9.43;2.17;;;;;;;15.80;66.55;99682.31;5069782;28;20084;-71
2022/03/31 07:53:35;;;;;;;9.17;1.87;;;;;;;15.96;66.33;99712.72;5068584;28;20532;-71
2022/03/31 07:56:03;;;;;;;8.25;1.70;;;;;;;15.86;66.38;99695.03;5064694;28;20166;-71
2022/03/31 07:58:30;;;;;;;3.07;1.20;;;;;;;15.87;65.97;99719.22;5070245;28;20102;-71
2022/03/31 08:00:58;;;;;;;8.00;1.80;;;;;;;15.56;65.91;99687.66;5067611;28;20087;-70
2022/03/31 08:03:25;;;;;;;9.33;1.70;;;;;;;15.64;65.69;99714.94;5065288;28;20056;-71
2022/03/31 08:05:52;;;;;;;3.57;1.53;;;;;;;15.53;65.82;99699.56;5068112;28;20139;-71
2022/03/31 08:08:19;;;;;;;10.00;1.80;;;;;;;15.62;66.18;99723.72;5065573;28;20120;-69
2022/03/31 08:10:49;;;;;;;4.57;2.00;;;;;;;15.67;66.11;99721.91;5061170;28;20040;-71
2022/03/31 08:13:28;;;;;;;8.67;3.03;;;;;;;15.72;66.55;99722.53;5067221;28;20049;-73
2022/03/31 08:15:56;;;;;;;7.50;2.43;;;;;;;16.15;65.94;99715.94;5061442;28;20056;-72
2022/03/31 08:18:28;;;;;;;4.60;1.63;;;;;;;16.37;65.62;99725.28;5058394;28;20051;-73
2022/03/31 08:20:57;;;;;;;4.87;1.70;;;;;;;16.67;64.94;99723.28;5062248;28;20129;-74
2022/03/31 08:23:25;;;;;;;9.57;1.60;;;;;;;16.83;64.45;99704.63;5071115;28;20126;-73
2022/03/31 08:25:54;;;;;;;8.30;2.35;;;;;;;17.58;64.07;99718.72;5070207;28;20049;-74
2022/03/31 08:28:21;;;;;;;4.83;1.30;;;;;;;17.58;63.72;99696.16;5069060;28;20463;-74
2022/03/31 08:30:48;;;;;;;6.20;1.92;;;;;;;17.80;63.46;99716.69;5062944;28;20412;-73
2022/03/31 08:33:15;;;;;;;10.18;1.88;;;;;;;17.60;63.02;99702.25;5066970;28;20135;-74
2022/03/31 08:35:44;;;;;;;5.00;1.70;;;;;;;17.65;63.09;99715.34;5069280;28;20501;-73
2022/03/31 08:38:11;;;;;;;9.98;2.45;;;;;;;17.83;62.53;99733.78;5065837;28;20098;-73
2022/03/31 08:40:45;;;;;;;4.85;1.60;;;;;;;18.03;62.47;99743.34;5063814;28;20160;-74
2022/03/31 08:43:12;;;;;;;5.00;1.92;;;;;;;18.17;61.79;99709.94;5064036;28;20136;-73
2022/03/31 08:45:41;;;;;;;10.82;3.13;;;;;;;18.35;61.70;99735.13;5069122;28;20094;-73
2022/03/31 08:48:08;;;;;;;8.95;2.80;;;;;;;18.17;61.94;99749.50;5061397;28;20044;-72
2022/03/31 08:50:36;;;;;;;7.88;2.75;;;;;;;18.03;61.20;99737.69;5064066;28;20083;-71
2022/03/31 08:53:04;;;;;;;4.68;2.33;;;;;;;17.90;61.78;99752.97;5065504;28;20127;-73
2022/03/31 08:55:31;;;;;;;6.75;2.00;;;;;;;17.64;61.40;99742.75;5081927;28;20052;-73
2022/03/31 08:57:58;;;;;;;8.80;2.30;;;;;;;17.56;61.37;99746.47;5061629;28;20048;-72
2022/03/31 09:00:27;;;;;;;2.97;1.23;;;;;;;17.51;61.57;99761.63;5064013;28;20087;-73
2022/03/31 09:03:00;;;;;;;7.07;1.50;;;;;;;17.34;61.22;99761.81;5058741;28;20114;-73
2022/03/31 09:05:34;;;;;;;6.28;2.58;;;;;;;17.69;61.07;99772.75;5066591;28;20080;-73
2022/03/31 09:08:05;;;;;;;3.92;1.95;;;;;;;17.75;60.15;99732.66;5079812;28;20410;-73
2022/03/31 09:10:41;;;;;;;5.32;1.75;;;;;;;17.99;59.58;99765.81;5066540;28;20059;-73
2022/03/31 09:13:21;;;;;;;4.88;1.30;;;;;;;17.85;59.71;99747.56;5061747;28;20112;-71
2022/03/31 09:15:51;;;;;;;3.50;1.00;;;;;;;17.86;59.59;99777.44;5080864;28;20476;-71
2022/03/31 09:18:22;;;;;;;5.05;1.20;;;;;;;17.87;59.82;99785.56;5063688;28;20478;-72
2022/03/31 09:20:52;;;;;;;4.22;1.02;;;;;;;17.94;59.45;99776.50;5065354;28;20133;-71
2022/03/31 09:23:22;;;;;;;4.53;1.50;;;;;;;17.76;58.21;99771.06;5084561;28;20053;-70
2022/03/31 09:25:51;;;;;;;2.50;0.90;;;;;;;17.88;57.84;99792.88;5067419;28;20053;-71
2022/03/31 09:28:21;;;;;;;3.60;0.73;;;;;;;17.46;57.67;99763.84;5064719;28;20084;-71
2022/03/31 09:30:51;;;;;;;3.28;1.35;;;;;;;17.60;57.22;99794.59;5060459;28;20076;-71
2022/03/31 09:33:27;;;;;;;6.03;1.25;;;;;;;17.43;57.60;99798.41;5059375;28;20064;-71
2022/03/31 09:36:08;;;;;;;1.38;0.68;;;;;;;17.42;57.31;99800.41;5068181;28;20121;-71
2022/03/31 09:38:37;;;;;;;1.58;0.65;;;;;;;17.37;57.62;99799.81;5068138;28;20068;-71
2022/03/31 09:41:24;;;;;;;4.40;0.80;;;;;;;17.16;57.58;99794.97;5063850;28;20052;-71
2022/03/31 09:43:53;;;;;;;3.15;1.42;;;;;;;16.94;57.25;99815.84;5069586;28;20079;-70
2022/03/31 09:46:33;;;;;;;1.65;0.90;;;;;;;16.57;58.38;99815.53;5066546;28;20106;-71
2022/03/31 09:49:21;;;;;;;6.00;1.52;;;;;;;16.30;59.01;99813.16;5068160;28;20049;-71
2022/03/31 09:51:54;;;;;;;9.52;1.42;;;;;;;16.29;58.87;99811.50;5065125;28;20569;-70
2022/03/31 09:54:25;;;;;;;1.95;0.65;;;;;;;16.38;59.05;99817.94;5066305;28;20084;-71
2022/03/31 09:56:53;;;;;;;7.38;0.90;;;;;;;16.12;59.78;99823.66;5064718;28;20138;-71
2022/03/31 09:59:20;;;;;;;2.90;0.70;;;;;;;15.88;60.26;99830.66;5066888;28;20487;-71
2022/03/31 10:01:52;;;;;;;5.40;1.02;;;;;;;15.86;60.53;99821.72;5061586;28;20059;-73
2022/03/31 10:04:20;;;;;;;3.47;1.40;;;;;;;16.23;60.66;99836.22;5067781;28;20458;-73
2022/03/31 10:06:54;;;;;;;4.55;1.67;;;;;;;16.53;60.56;99828.63;5066744;28;20105;-71
2022/03/31 10:09:22;;;;;;;4.28;1.25;;;;;;;16.93;60.42;99819.03;5070871;28;20049;-72
2022/03/31 10:12:03;;;;;;;6.13;1.23;;;;;;;17.52;59.47;99830.22;5069016;28;20404;-71
2022/03/31 10:15:05;;;;;;;4.82;1.13;;;;;;;17.99;58.51;99838.47;5069121;28;20083;-71
2022/03/31 10:17:34;;;;;;;2.20;1.20;;;;;;;18.02;57.87;99788.88;5064004;28;20141;-71
2022/03/31 10:20:11;;;;;;;0.88;0.70;;;;;;;18.53;56.95;99831.84;5068437;28;20123;-71
2022/03/31 10:25:48;;;;;;;2.78;0.82;;;;;;;18.98;55.49;99840.28;5014905;28;20173;-72
2022/03/31 10:28:16;;;;;;;;;;;;;;;19.56;55.93;99835.22;5014049;28;20146;-72
2022/03/31 10:31:00;;;;;;;0.85;0.73;;;;;;;20.17;55.06;99828.50;5037942;28;20467;-72
2022/03/31 10:33:37;;;;;;;1.10;0.80;;;;;;;20.85;53.49;99820.94;5065886;28;20057;-72
2022/03/31 10:36:13;;;;;;;2.22;1.33;;;;;;;21.62;51.90;99814.66;5063074;28;20045;-73
2022/03/31 10:38:54;;;;;;;2.70;0.80;;;;;;;22.12;50.24;99818.50;5062854;28;20063;-73
2022/03/31 10:41:29;;;;;;;0.88;0.57;;;;;;;21.87;49.26;99812.31;5065157;28;20127;-73
2022/03/31 10:43:58;;;;;;;0.35;0.35;;;;;;;21.43;49.71;99819.09;5073122;28;20090;-72
2022/03/31 10:46:28;;;;;;;3.85;1.63;;;;;;;20.94;49.88;99827.25;5083535;28;20079;-72
2022/03/31 10:49:00;;;;;;;2.03;0.77;;;;;;;20.50;50.12;99828.19;5065756;28;20051;-72
2022/03/31 10:51:33;;;;;;;1.02;0.85;;;;;;;20.82;49.82;99826.19;5069831;28;20095;-74
2022/03/31 10:54:00;;;;;;;2.55;1.05;;;;;;;21.49;48.66;99825.31;5070414;28;20079;-79
2022/03/31 10:56:29;;;;;;;10.30;3.28;;;;;;;22.30;47.80;99819.72;5066127;28;20202;-75
2022/03/31 10:58:59;;;;;;;5.70;1.23;;;;;;;22.71;45.82;99817.19;5065430;28;20131;-73
2022/03/31 11:01:29;;;;;;;5.53;1.63;;;;;;;22.91;45.25;99810.22;5063701;28;20131;-75
2022/03/31 11:04:09;;;;;;;2.53;1.30;;;;;;;23.20;45.03;99798.47;5065624;28;20083;-80
2022/03/31 11:06:46;;;;;;;2.03;0.83;;;;;;;23.37;44.44;99812.13;5067668;28;20187;-80
2022/03/31 11:09:27;;;;;;;1.55;1.00;;;;;;;23.41;43.80;99810.97;5068973;28;20350;-79
2022/03/31 11:11:55;;;;;;;3.75;1.65;;;;;;;22.90;43.37;99797.16;5068327;28;20195;-82
2022/03/31 11:14:23;;;;;;;1.65;0.73;;;;;;;23.09;43.53;99816.22;5070610;28;20057;-82
2022/03/31 11:16:50;;;;;;;3.50;2.72;;;;;;;22.72;42.91;99818.81;5073681;28;20568;-84
2022/03/31 11:19:20;;;;;;;4.13;3.13;;;;;;;22.70;43.31;99838.28;5061760;28;20105;-82
2022/03/31 11:21:48;;;;;;;3.05;2.60;;;;;;;22.85;43.15;99825.97;5082369;28;20060;-82
2022/03/31 11:24:22;;;;;;;3.70;2.75;;;;;;;22.98;42.44;99811.56;5067450;28;20177;-78
2022/03/31 11:26:50;;;;;;;3.70;3.40;;;;;;;22.95;41.99;99844.47;5065464;28;20048;-79
2022/03/31 11:29:19;;;;;;;3.72;2.72;;;;;;;23.14;42.44;99835.78;5067870;28;20056;-80
2022/03/31 11:31:51;;;;;;;3.70;2.70;;;;;;;23.83;41.52;99854.75;5070284;28;20087;-81
2022/03/31 11:34:24;;;;;;;6.70;3.10;;;;;;;24.13;41.29;99814.75;5067963;28;20044;-80
2022/03/31 11:36:53;;;;;;;5.90;5.43;;;;;;;24.22;40.55;99820.97;5062089;28;20048;-79
2022/03/31 11:39:28;;;;;;;2.70;2.50;;;;;;;24.28;40.19;99830.84;5075146;28;20072;-80
2022/03/31 11:41:57;;;;;;;3.92;2.40;;;;;;;24.46;39.91;99825.34;5062976;28;20496;-78
2022/03/31 11:44:30;;;;;;;3.63;2.67;;;;;;;24.61;39.99;99831.19;5065790;28;20049;-83
2022/03/31 11:46:57;;;;;;;5.63;5.20;;;;;;;25.32;38.80;99808.91;5068230;28;20055;-83